Time;durP1;ratioP1;P1;durP2;ratioP2;P2;SDS_P1;SDS_P2;PMS_P1;PMS_P2;Temp;Humidity;BMP_temperature;BMP_pressure;BME280_temperature;BME280_humidity;BME280_pressure;Samples;Min_cycle;Max_cycle;Signal;HPM_P1;HPM_P2
2021/09/04 00:05:38;;;;;;;29.35;19.23;;;14.50;99.90;;;;;;12519730;28;20164;-36
2021/09/04 00:11:40;;;;;;;28.48;19.45;;;14.40;99.90;;;;;;12514547;28;20154;-36
2021/09/04 00:17:43;;;;;;;34.42;19.98;;;14.40;99.90;;;;;;12513081;28;20699;-37
2021/09/04 00:23:45;;;;;;;33.83;19.85;;;14.60;99.90;;;;;;12516171;28;20091;-36
2021/09/04 00:29:47;;;;;;;35.25;20.45;;;14.40;99.90;;;;;;12518827;28;20072;-36
2021/09/04 00:35:49;;;;;;;31.38;20.48;;;14.40;99.90;;;;;;12517803;28;20088;-36
2021/09/04 00:41:50;;;;;;;35.97;20.92;;;14.50;99.90;;;;;;12518531;28;20049;-36
2021/09/04 00:48:01;;;;;;;33.85;20.70;;;14.60;99.90;;;;;;12519639;28;20150;-36
2021/09/04 00:54:05;;;;;;;34.15;21.50;;;14.40;99.90;;;;;;12513605;28;20053;-36
2021/09/04 01:00:08;;;;;;;34.97;22.50;;;14.30;99.90;;;;;;12516109;28;20075;-37
2021/09/04 01:06:15;;;;;;;33.08;22.63;;;14.30;99.90;;;;;;12511592;28;20045;-36
2021/09/04 01:12:17;;;;;;;36.30;23.42;;;14.30;99.90;;;;;;12489852;28;20579;-36
2021/09/04 01:18:19;;;;;;;33.60;22.95;;;14.40;99.90;;;;;;12508875;28;20057;-36
2021/09/04 01:24:22;;;;;;;38.58;23.08;;;14.20;99.90;;;;;;12510342;28;20049;-36
2021/09/04 01:30:24;;;;;;;46.45;24.00;;;14.30;99.90;;;;;;12515633;28;20074;-37
2021/09/04 01:36:27;;;;;;;39.85;24.70;;;14.30;99.90;;;;;;12511895;28;20413;-36
2021/09/04 01:42:30;;;;;;;38.28;22.92;;;14.50;99.90;;;;;;12514185;28;20053;-36
2021/09/04 01:48:31;;;;;;;39.20;21.88;;;14.40;99.90;;;;;;12516252;28;20037;-36
2021/09/04 01:54:36;;;;;;;35.25;22.73;;;14.30;99.90;;;;;;12521085;28;20072;-37
2021/09/04 02:00:38;;;;;;;36.17;22.15;;;14.30;99.90;;;;;;12516584;28;20042;-36
2021/09/04 02:06:40;;;;;;;29.88;18.80;;;14.00;99.90;;;;;;12515643;28;20056;-36
2021/09/04 02:12:45;;;;;;;28.20;16.73;;;14.20;99.90;;;;;;12515623;28;20060;-36
2021/09/04 02:18:47;;;;;;;26.08;17.83;;;14.40;99.90;;;;;;12524468;28;20098;-36
2021/09/04 02:24:49;;;;;;;28.63;16.67;;;14.20;99.90;;;;;;12527792;28;20493;-36
2021/09/04 02:30:52;;;;;;;27.67;16.02;;;14.10;99.90;;;;;;12527133;28;20091;-36
2021/09/04 02:36:54;;;;;;;28.25;15.40;;;14.00;99.90;;;;;;12522199;28;20207;-36
2021/09/04 02:42:56;;;;;;;26.42;14.90;;;13.90;99.90;;;;;;12518149;28;20122;-36
2021/09/04 02:48:58;;;;;;;24.13;15.30;;;14.10;99.90;;;;;;12506274;28;20058;-36
2021/09/04 02:54:59;;;;;;;23.90;14.13;;;13.90;99.90;;;;;;12514948;28;20053;-37
2021/09/04 03:01:02;;;;;;;21.20;13.57;;;13.80;99.90;;;;;;12525934;28;20139;-36
2021/09/04 03:07:06;;;;;;;19.55;12.73;;;13.70;99.90;;;;;;12526107;28;20056;-36
2021/09/04 03:13:08;;;;;;;17.33;11.23;;;13.80;99.90;;;;;;12523316;28;20075;-37
2021/09/04 03:19:10;;;;;;;18.45;11.50;;;13.90;99.90;;;;;;12521486;28;20061;-36
2021/09/04 03:25:14;;;;;;;19.95;11.25;;;13.90;99.90;;;;;;12518480;28;20482;-36
2021/09/04 03:31:16;;;;;;;20.88;12.73;;;13.80;99.90;;;;;;12519914;28;20115;-37
2021/09/04 03:37:18;;;;;;;19.85;12.00;;;13.80;99.90;;;;;;12519665;28;20044;-36
2021/09/04 03:43:20;;;;;;;18.30;12.32;;;13.80;99.90;;;;;;12521029;28;20053;-36
2021/09/04 03:49:24;;;;;;;19.83;11.23;;;13.70;99.90;;;;;;12520471;28;20064;-36
2021/09/04 03:55:27;;;;;;;20.90;11.70;;;13.80;99.90;;;;;;12521069;28;20086;-36
2021/09/04 04:01:29;;;;;;;19.33;12.20;;;13.60;99.90;;;;;;12516894;28;20041;-38
2021/09/04 04:07:32;;;;;;;19.90;11.73;;;13.60;99.90;;;;;;12519545;28;20061;-36
2021/09/04 04:13:34;;;;;;;21.67;11.63;;;13.70;99.90;;;;;;12519560;28;20955;-36
2021/09/04 04:19:36;;;;;;;18.48;10.60;;;13.70;99.90;;;;;;12517776;28;20992;-36
2021/09/04 04:25:38;;;;;;;23.95;11.77;;;13.80;99.90;;;;;;12509235;28;20868;-36
2021/09/04 04:31:43;;;;;;;17.63;10.75;;;13.70;99.90;;;;;;12519418;28;20052;-37
2021/09/04 04:37:45;;;;;;;20.40;10.38;;;13.80;99.90;;;;;;12508345;28;20402;-36
2021/09/04 04:43:47;;;;;;;19.42;11.23;;;14.00;99.90;;;;;;12520291;28;20554;-36
2021/09/04 04:49:50;;;;;;;18.50;9.40;;;13.90;99.90;;;;;;12511951;28;20056;-36
2021/09/04 04:55:55;;;;;;;19.15;9.30;;;13.90;99.90;;;;;;12511220;28;20057;-36
2021/09/04 05:01:57;;;;;;;16.58;8.38;;;13.90;99.90;;;;;;12503377;28;20137;-36
2021/09/04 05:08:02;;;;;;;14.63;8.60;;;13.80;99.90;;;;;;12517023;28;20053;-36
2021/09/04 05:14:07;;;;;;;17.83;9.95;;;13.80;99.90;;;;;;12513223;28;20044;-37
2021/09/04 05:20:10;;;;;;;14.90;9.73;;;13.60;99.90;;;;;;12511161;28;20295;-36
2021/09/04 05:26:13;;;;;;;14.85;10.05;;;13.60;99.90;;;;;;12507636;28;20071;-36
2021/09/04 05:32:22;;;;;;;19.80;12.20;;;13.60;99.90;;;;;;12508797;28;20417;-36
2021/09/04 05:38:25;;;;;;;22.80;13.02;;;13.60;99.90;;;;;;12515900;28;20443;-36
2021/09/04 05:44:29;;;;;;;22.35;13.07;;;13.50;99.90;;;;;;12511352;28;20061;-36
2021/09/04 05:50:31;;;;;;;23.15;12.07;;;13.40;99.90;;;;;;12503976;28;20046;-36
2021/09/04 05:56:33;;;;;;;25.20;12.75;;;13.50;99.90;;;;;;12514126;28;20040;-37
2021/09/04 06:02:38;;;;;;;21.38;11.00;;;13.50;99.90;;;;;;12525867;28;20072;-36
2021/09/04 06:08:41;;;;;;;21.75;12.27;;;13.70;99.90;;;;;;12526994;28;20136;-37
2021/09/04 06:14:43;;;;;;;19.75;11.43;;;13.60;99.90;;;;;;12518195;28;20139;-36
2021/09/04 06:20:45;;;;;;;20.08;12.45;;;13.80;99.90;;;;;;12518738;28;20383;-36
2021/09/04 06:26:50;;;;;;;23.27;14.70;;;13.60;99.90;;;;;;12520140;28;20401;-36
2021/09/04 06:32:55;;;;;;;27.27;15.73;;;13.80;99.90;;;;;;12517379;28;20056;-37
2021/09/04 06:39:03;;;;;;;23.35;14.02;;;13.70;99.90;;;;;;12522375;28;20173;-36
2021/09/04 06:45:05;;;;;;;22.75;13.02;;;13.70;99.90;;;;;;12520110;28;20073;-36
2021/09/04 06:51:08;;;;;;;24.38;13.25;;;13.90;99.90;;;;;;12513162;28;20099;-36
2021/09/04 06:57:10;;;;;;;22.80;13.00;;;13.60;99.90;;;;;;12514824;28;20733;-36
2021/09/04 07:03:13;;;;;;;25.40;15.18;;;13.70;99.90;;;;;;12515906;28;20049;-36
2021/09/04 07:09:17;;;;;;;26.48;13.65;;;13.50;99.90;;;;;;12519611;28;20045;-36
2021/09/04 07:15:20;;;;;;;16.70;11.18;;;13.90;99.90;;;;;;12522680;28;20049;-36
2021/09/04 07:21:23;;;;;;;19.80;9.25;;;13.90;99.90;;;;;;12516638;28;20135;-36
2021/09/04 07:27:25;;;;;;;16.45;10.27;;;13.90;99.90;;;;;;12506186;28;20135;-36
2021/09/04 07:33:28;;;;;;;17.60;10.10;;;13.90;99.90;;;;;;12514870;28;20143;-36
2021/09/04 07:39:30;;;;;;;19.35;9.80;;;14.00;99.90;;;;;;12514908;28;20049;-37
2021/09/04 07:45:32;;;;;;;16.52;9.57;;;14.00;99.90;;;;;;12509482;28;20049;-36
2021/09/04 07:51:37;;;;;;;17.42;9.85;;;13.90;99.90;;;;;;12520068;28;20098;-36
2021/09/04 07:57:40;;;;;;;16.48;9.77;;;14.10;99.90;;;;;;12500354;28;20548;-36
2021/09/04 08:03:42;;;;;;;15.48;9.57;;;14.00;99.90;;;;;;12512249;28;20152;-36
2021/09/04 08:09:44;;;;;;;18.42;9.82;;;14.10;99.90;;;;;;12508296;28;20053;-36
2021/09/04 08:15:48;;;;;;;16.48;8.73;;;14.00;99.90;;;;;;12515058;28;20077;-36
2021/09/04 08:21:55;;;;;;;18.42;9.57;;;14.10;99.90;;;;;;12517515;28;20137;-36
2021/09/04 08:27:57;;;;;;;16.38;8.18;;;13.90;99.90;;;;;;12510505;28;20405;-36
2021/09/04 08:33:59;;;;;;;14.88;8.20;;;14.30;99.90;;;;;;12507002;28;20053;-36
2021/09/04 08:40:05;;;;;;;14.05;8.15;;;14.40;99.90;;;;;;12507076;28;20041;-36
2021/09/04 08:46:13;;;;;;;15.52;9.10;;;14.50;99.90;;;;;;12500842;28;20148;-36
2021/09/04 08:52:18;;;;;;;14.15;7.93;;;14.40;99.90;;;;;;12504221;28;20076;-36
2021/09/04 08:58:25;;;;;;;13.55;8.82;;;14.80;99.90;;;;;;12511933;28;20090;-37
2021/09/04 09:04:27;;;;;;;15.23;9.52;;;14.50;99.90;;;;;;12509204;28;20061;-36
2021/09/04 09:10:32;;;;;;;16.40;9.52;;;14.80;99.90;;;;;;12499995;28;20072;-36
2021/09/04 09:16:37;;;;;;;15.88;9.20;;;15.00;99.90;;;;;;12504437;28;20053;-36
2021/09/04 09:22:44;;;;;;;15.15;8.77;;;14.80;99.90;;;;;;12509280;28;20056;-36
2021/09/04 09:28:49;;;;;;;15.50;8.63;;;14.90;99.90;;;;;;12509642;28;20084;-36
2021/09/04 09:34:54;;;;;;;16.52;8.95;;;14.70;99.90;;;;;;12508053;28;20041;-36
2021/09/04 09:41:07;;;;;;;15.45;7.78;;;15.50;99.90;;;;;;12509951;28;20129;-36
2021/09/04 09:47:12;;;;;;;12.88;7.47;;;15.90;99.90;;;;;;12507344;28;20056;-37
2021/09/04 09:53:14;;;;;;;13.68;8.35;;;16.10;99.90;;;;;;12493541;28;20079;-36
2021/09/04 09:59:17;;;;;;;11.63;7.22;;;16.40;99.90;;;;;;12511545;28;20053;-39
2021/09/04 10:05:25;;;;;;;12.75;7.53;;;16.10;99.90;;;;;;12512626;28;20487;-36
2021/09/04 10:11:29;;;;;;;12.23;8.18;;;15.80;99.90;;;;;;12514221;28;20042;-38
2021/09/04 10:17:32;;;;;;;15.48;8.05;;;16.30;99.90;;;;;;12507225;28;20087;-36
2021/09/04 10:23:33;;;;;;;11.98;7.60;;;16.90;99.90;;;;;;12505552;28;20414;-36
2021/09/04 10:29:43;;;;;;;14.48;7.72;;;16.90;99.90;;;;;;12513068;28;20045;-37
2021/09/04 10:35:56;;;;;;;14.23;8.13;;;16.60;99.90;;;;;;12515942;28;20079;-36
2021/09/04 10:42:00;;;;;;;9.07;6.03;;;17.30;99.90;;;;;;12519090;28;20067;-36
2021/09/04 10:48:20;;;;;;;10.85;6.47;;;16.90;99.90;;;;;;12518045;28;20545;-37
2021/09/04 10:55:02;;;;;;;8.30;5.78;;;17.40;99.90;;;;;;12520001;28;20044;-36
2021/09/04 11:01:04;;;;;;;11.18;6.35;;;17.70;99.90;;;;;;12519281;28;20731;-36
2021/09/04 11:07:07;;;;;;;11.75;6.50;;;17.60;99.90;;;;;;12514695;28;20057;-37
2021/09/04 11:13:12;;;;;;;10.63;6.22;;;18.30;99.90;;;;;;12517007;28;20049;-37
2021/09/04 11:19:22;;;;;;;9.02;6.07;;;18.20;99.90;;;;;;12523752;28;20040;-36
2021/09/04 11:25:24;;;;;;;10.38;6.97;;;18.50;99.90;;;;;;12512505;28;20060;-36
2021/09/04 11:31:27;;;;;;;15.23;7.32;;;18.60;99.90;;;;;;12518496;28;20053;-36
2021/09/04 11:37:34;;;;;;;12.57;5.75;;;18.00;99.90;;;;;;12512394;28;20060;-38
2021/09/04 11:43:37;;;;;;;11.25;6.15;;;18.40;99.90;;;;;;12515220;28;20053;-37
2021/09/04 11:49:43;;;;;;;10.32;6.50;;;18.70;99.90;;;;;;12514062;28;20053;-37
2021/09/04 11:55:45;;;;;;;12.32;6.28;;;18.20;99.90;;;;;;12497555;28;20051;-37
2021/09/04 12:01:47;;;;;;;10.70;6.70;;;18.90;99.90;;;;;;12519249;28;20102;-37
2021/09/04 12:07:53;;;;;;;9.80;6.45;;;19.30;99.90;;;;;;12516658;28;20078;-37
2021/09/04 12:13:55;;;;;;;12.40;5.60;;;19.40;99.90;;;;;;12512542;28;20401;-38
2021/09/04 12:20:10;;;;;;;10.82;5.85;;;19.30;99.90;;;;;;12515680;28;20053;-37
2021/09/04 12:26:13;;;;;;;11.65;6.35;;;19.30;99.90;;;;;;12523512;28;20048;-39
2021/09/04 12:32:15;;;;;;;12.90;6.65;;;19.00;99.90;;;;;;12519039;28;20053;-37
2021/09/04 12:38:19;;;;;;;11.97;6.93;;;19.00;99.90;;;;;;12521133;28;20421;-37
2021/09/04 12:44:21;;;;;;;;;;;19.70;99.90;;;;;;12517733;28;20053;-37
2021/09/04 12:50:25;;;;;;;11.35;5.82;;;20.00;99.90;;;;;;12515583;28;19928;-37
2021/09/04 12:56:35;;;;;;;14.20;5.63;;;20.30;99.90;;;;;;12507835;28;20045;-37
2021/09/04 13:02:41;;;;;;;12.70;5.43;;;19.90;99.90;;;;;;12512357;28;20191;-37
2021/09/04 13:08:43;;;;;;;9.27;5.38;;;20.70;99.90;;;;;;12517162;28;20057;-39
2021/09/04 13:14:46;;;;;;;9.10;5.43;;;20.70;99.90;;;;;;12520342;28;20097;-37
2021/09/04 13:20:48;;;;;;;13.13;5.63;;;20.40;99.90;;;;;;12491878;28;20414;-37
2021/09/04 13:26:54;;;;;;;12.05;5.10;;;20.40;99.90;;;;;;12507477;28;20350;-38
2021/09/04 13:32:56;;;;;;;9.88;4.93;;;20.50;99.90;;;;;;12509661;28;20187;-38
2021/09/04 13:38:59;;;;;;;10.52;4.78;;;20.20;99.90;;;;;;12516500;28;20052;-39
2021/09/04 13:45:02;;;;;;;10.57;4.60;;;20.20;99.90;;;;;;12514871;28;20057;-37
2021/09/04 13:51:06;;;;;;;9.52;4.07;;;20.30;99.90;;;;;;12518337;28;20060;-38
2021/09/04 13:57:08;;;;;;;8.93;4.13;;;20.20;99.90;;;;;;12519356;28;20164;-38
2021/09/04 14:03:10;;;;;;;8.43;3.83;;;20.30;99.90;;;;;;12516088;28;20525;-37
2021/09/04 14:09:13;;;;;;;10.15;3.80;;;20.40;99.90;;;;;;12522182;28;20044;-37
2021/09/04 14:15:16;;;;;;;8.17;3.70;;;19.60;99.90;;;;;;12523722;28;20098;-38
2021/09/04 14:21:18;;;;;;;9.33;4.20;;;20.10;99.90;;;;;;12523717;28;20052;-38
2021/09/04 14:27:23;;;;;;;10.52;3.65;;;19.90;99.90;;;;;;12521677;28;20049;-38
2021/09/04 14:33:25;;;;;;;11.48;4.40;;;19.80;99.90;;;;;;12521184;28;20524;-37
2021/09/04 14:39:27;;;;;;;10.77;3.63;;;19.70;99.90;;;;;;12522141;28;20049;-38
2021/09/04 14:45:30;;;;;;;7.60;3.80;;;19.60;99.90;;;;;;12521041;28;20549;-37
2021/09/04 14:51:32;;;;;;;9.68;4.20;;;20.50;99.90;;;;;;12521237;28;20508;-37
2021/09/04 14:57:34;;;;;;;9.27;3.75;;;20.70;99.90;;;;;;12520532;28;20999;-37
2021/09/04 15:03:39;;;;;;;7.10;3.45;;;19.90;99.90;;;;;;12518858;28;20048;-39
2021/09/04 15:09:43;;;;;;;7.35;3.60;;;20.70;99.90;;;;;;12519125;28;20049;-37
2021/09/04 15:15:46;;;;;;;11.23;4.05;;;20.60;99.90;;;;;;12515357;28;20628;-38
2021/09/04 15:21:50;;;;;;;8.50;3.83;;;20.80;99.90;;;;;;12465765;28;20062;-38
2021/09/04 15:27:54;;;;;;;7.28;3.63;;;20.30;99.90;;;;;;12461065;28;20482;-37
2021/09/04 15:33:57;;;;;;;9.00;3.55;;;21.00;99.90;;;;;;12469976;28;20058;-37
2021/09/04 15:39:59;;;;;;;8.00;3.83;;;20.80;99.90;;;;;;12466743;28;20091;-37
2021/09/04 15:46:05;;;;;;;8.18;4.40;;;21.00;99.90;;;;;;12467743;28;20459;-38
2021/09/04 15:52:07;;;;;;;6.73;3.97;;;20.50;99.90;;;;;;12461652;28;20057;-39
2021/09/04 15:58:13;;;;;;;;;;;20.60;99.90;;;;;;12460829;28;20053;-37
2021/09/04 16:04:20;;;;;;;11.10;3.75;;;20.40;99.90;;;;;;12445579;28;19971;-38
2021/09/04 16:10:25;;;;;;;7.90;3.95;;;20.80;99.90;;;;;;12458384;28;20049;-38
2021/09/04 16:16:27;;;;;;;9.95;4.22;;;20.50;99.90;;;;;;12469516;28;20049;-36
2021/09/04 16:22:29;;;;;;;6.60;4.22;;;20.70;99.90;;;;;;12513323;28;20049;-38
2021/09/04 16:28:32;;;;;;;10.20;4.20;;;21.50;99.90;;;;;;12523743;28;20056;-40
2021/09/04 16:34:35;;;;;;;8.02;4.38;;;21.10;99.90;;;;;;12512037;28;20052;-38
2021/09/04 16:40:38;;;;;;;8.97;4.27;;;20.80;99.90;;;;;;12516877;28;20121;-38
2021/09/04 16:46:40;;;;;;;8.80;5.00;;;20.50;99.90;;;;;;12523940;28;20447;-39
2021/09/04 16:52:43;;;;;;;12.82;4.72;;;20.30;99.90;;;;;;12501985;28;20056;-37
2021/09/04 16:58:45;;;;;;;10.20;5.22;;;19.70;99.90;;;;;;12512171;28;20048;-38
2021/09/04 17:04:57;;;;;;;8.40;4.40;;;19.30;99.90;;;;;;12508389;28;20612;-38
2021/09/04 17:11:01;;;;;;;10.18;4.80;;;19.10;99.90;;;;;;12521390;28;20512;-37
2021/09/04 17:17:03;;;;;;;16.60;4.93;;;18.70;99.90;;;;;;12520969;28;20061;-38
2021/09/04 17:23:07;;;;;;;8.07;4.73;;;18.30;99.90;;;;;;12510670;28;20675;-38
2021/09/04 17:29:09;;;;;;;9.57;4.40;;;18.40;99.90;;;;;;12518182;28;20114;-38
2021/09/04 17:35:12;;;;;;;9.50;4.97;;;18.60;99.90;;;;;;12507702;28;20508;-38
2021/09/04 17:41:15;;;;;;;8.18;5.47;;;18.30;99.90;;;;;;12511409;28;20052;-39
2021/09/04 17:47:21;;;;;;;9.15;5.22;;;18.20;99.90;;;;;;12515214;28;20045;-37
2021/09/04 17:53:23;;;;;;;12.48;5.97;;;18.00;99.90;;;;;;12522771;28;20057;-38
2021/09/04 17:59:26;;;;;;;12.35;5.72;;;17.90;99.90;;;;;;12506358;28;20049;-38
2021/09/04 18:05:29;;;;;;;14.02;6.97;;;17.80;99.90;;;;;;12500116;28;20074;-37
2021/09/04 18:11:32;;;;;;;14.02;6.95;;;17.70;99.90;;;;;;12526057;28;20045;-37
2021/09/04 18:17:34;;;;;;;13.18;7.38;;;17.60;99.90;;;;;;12522491;28;20080;-37
2021/09/04 18:23:36;;;;;;;11.65;7.20;;;17.40;99.90;;;;;;12527797;28;20053;-39
2021/09/04 18:29:40;;;;;;;16.95;8.43;;;17.20;99.90;;;;;;12522964;28;20103;-37
2021/09/04 18:35:43;;;;;;;16.80;9.30;;;17.20;99.90;;;;;;12504859;28;20091;-39
2021/09/04 18:41:46;;;;;;;15.60;9.32;;;17.00;99.90;;;;;;12527210;28;20049;-38
2021/09/04 18:47:48;;;;;;;13.77;8.13;;;17.00;99.90;;;;;;12526370;28;20090;-38
2021/09/04 18:53:51;;;;;;;13.65;8.38;;;16.90;99.90;;;;;;12517376;28;20049;-40
2021/09/04 18:59:53;;;;;;;16.40;8.93;;;16.70;99.90;;;;;;12521321;28;20045;-38
2021/09/04 19:05:55;;;;;;;13.32;7.65;;;16.40;99.90;;;;;;12523290;28;20053;-37
2021/09/04 19:11:57;;;;;;;15.93;9.32;;;16.40;99.90;;;;;;12530936;28;20055;-38
2021/09/04 19:17:59;;;;;;;12.63;8.30;;;16.20;99.90;;;;;;12519925;28;20124;-39
2021/09/04 19:24:01;;;;;;;16.77;8.75;;;16.20;99.90;;;;;;12519086;28;20072;-37
2021/09/04 19:30:04;;;;;;;17.23;9.13;;;16.20;99.90;;;;;;12502207;28;20545;-37
2021/09/04 19:36:07;;;;;;;14.32;8.30;;;16.10;99.90;;;;;;12520174;28;20052;-41
2021/09/04 19:42:09;;;;;;;17.92;8.68;;;15.90;99.90;;;;;;12509153;28;20048;-37
2021/09/04 19:48:11;;;;;;;17.55;9.05;;;15.80;99.90;;;;;;12511905;28;20560;-38
2021/09/04 19:54:13;;;;;;;16.73;9.52;;;15.70;99.90;;;;;;12516043;28;21008;-38
2021/09/04 20:00:15;;;;;;;14.55;8.63;;;15.80;99.90;;;;;;12484921;28;20065;-38
2021/09/04 20:06:17;;;;;;;15.80;9.13;;;15.70;99.90;;;;;;12514541;28;20072;-37
2021/09/04 20:12:19;;;;;;;13.60;8.57;;;15.60;99.90;;;;;;12506402;28;20041;-37
2021/09/04 20:18:22;;;;;;;12.68;8.52;;;15.50;99.90;;;;;;12507220;28;20088;-38
2021/09/04 20:24:26;;;;;;;13.35;7.95;;;15.30;99.90;;;;;;12511099;28;20049;-37
2021/09/04 20:30:30;;;;;;;15.68;8.45;;;15.20;99.90;;;;;;12510966;28;20070;-37
2021/09/04 20:42:34;;;;;;;15.40;8.35;;;15.00;99.90;;;;;;12520158;28;20048;-37
2021/09/04 20:48:36;;;;;;;11.25;6.80;;;14.90;99.90;;;;;;12513165;28;20052;-38
2021/09/04 20:54:38;;;;;;;14.85;7.50;;;14.90;99.90;;;;;;12514695;28;20056;-36
2021/09/04 21:00:40;;;;;;;14.05;7.82;;;14.80;99.90;;;;;;12497846;28;20417;-36
2021/09/04 21:06:42;;;;;;;15.07;6.80;;;14.80;99.90;;;;;;12517659;28;20065;-37
2021/09/04 21:12:44;;;;;;;11.18;7.40;;;14.80;99.90;;;;;;12489437;28;20048;-38
2021/09/04 21:18:46;;;;;;;16.50;7.53;;;14.80;99.90;;;;;;12516730;28;20053;-37
2021/09/04 21:24:48;;;;;;;14.27;7.47;;;14.60;99.90;;;;;;12512935;28;20045;-37
2021/09/04 21:30:50;;;;;;;16.70;7.38;;;14.70;99.90;;;;;;12504643;28;20097;-37
2021/09/04 21:36:52;;;;;;;15.55;7.78;;;14.60;99.90;;;;;;12515813;28;20053;-36
2021/09/04 21:42:54;;;;;;;16.13;8.40;;;14.40;99.90;;;;;;12488029;28;20045;-37
2021/09/04 21:48:56;;;;;;;12.48;7.38;;;14.40;99.90;;;;;;12512844;28;20052;-38
2021/09/04 21:54:58;;;;;;;13.80;7.60;;;14.40;99.90;;;;;;12505445;28;20106;-39
2021/09/04 22:01:01;;;;;;;18.35;8.27;;;14.40;99.90;;;;;;12509281;28;20041;-37
2021/09/04 22:07:03;;;;;;;18.30;7.50;;;14.50;99.90;;;;;;12512331;28;20490;-36
2021/09/04 22:13:05;;;;;;;18.52;7.85;;;14.60;99.90;;;;;;12503141;28;20156;-40
2021/09/04 22:19:07;;;;;;;15.98;7.20;;;14.40;99.90;;;;;;12506253;28;20478;-36
2021/09/04 22:25:09;;;;;;;18.42;8.80;;;14.40;99.90;;;;;;12504817;28;20466;-36
2021/09/04 22:31:11;;;;;;;16.25;8.27;;;14.40;99.90;;;;;;12502285;28;20135;-37
2021/09/04 22:43:34;;;;;;;17.27;8.55;;;14.20;99.90;;;;;;12514349;28;20068;-38
2021/09/04 22:49:36;;;;;;;15.55;7.72;;;14.00;99.90;;;;;;12519645;28;20055;-36
2021/09/04 22:55:38;;;;;;;15.52;8.23;;;13.90;99.90;;;;;;12512670;28;20559;-36
2021/09/04 23:01:46;;;;;;;15.52;8.48;;;13.90;99.90;;;;;;12519863;28;20524;-37
2021/09/04 23:07:48;;;;;;;14.88;7.70;;;13.90;99.90;;;;;;12523472;28;20144;-37
2021/09/04 23:13:53;;;;;;;18.25;8.98;;;13.90;99.90;;;;;;12507616;28;20136;-36
2021/09/04 23:19:55;;;;;;;12.07;8.07;;;13.90;99.90;;;;;;12520356;28;20137;-37
2021/09/04 23:25:56;;;;;;;14.18;7.45;;;13.90;99.90;;;;;;12520594;28;20053;-38
2021/09/04 23:31:58;;;;;;;17.13;9.02;;;13.80;99.90;;;;;;12512281;28;20472;-37
2021/09/04 23:38:00;;;;;;;14.05;8.13;;;13.80;99.90;;;;;;12509062;28;20049;-36
2021/09/04 23:44:02;;;;;;;17.10;8.82;;;13.70;99.90;;;;;;12510663;28;20053;-36
2021/09/04 23:50:06;;;;;;;15.95;8.15;;;13.80;99.90;;;;;;12511150;28;20052;-38
2021/09/04 23:56:08;;;;;;;20.17;8.10;;;13.70;99.90;;;;;;12514183;28;20080;-36
